Time;durP1;ratioP1;P1;durP2;ratioP2;P2;SDS_P1;SDS_P2;PMS_P1;PMS_P2;Temp;Humidity;BMP_temperature;BMP_pressure;BME280_temperature;BME280_humidity;BME280_pressure;Samples;Min_cycle;Max_cycle;Signal;HPM_P1;HPM_P2
2021/04/07 00:01:05;;;;;;;2.58;2.03;;;;;;;;;;4965790;28;20172;-79
2021/04/07 00:03:31;;;;;;;3.08;2.25;;;;;;;;;;4964925;28;20269;-80
2021/04/07 00:05:57;;;;;;;3.65;2.65;;;;;;;;;;4963926;28;20184;-80
2021/04/07 00:08:26;;;;;;;4.55;2.42;;;;;;;;;;4957665;28;20193;-80
2021/04/07 00:10:53;;;;;;;4.85;3.05;;;;;;;;;;4979504;28;20184;-80
2021/04/07 00:13:20;;;;;;;4.05;2.75;;;;;;;;;;4979900;28;20188;-79
2021/04/07 00:15:46;;;;;;;3.75;2.45;;;;;;;;;;4979888;28;20675;-78
2021/04/07 00:18:12;;;;;;;2.47;2.22;;;;;;;;;;4961596;28;20237;-79
2021/04/07 00:20:38;;;;;;;3.67;2.80;;;;;;;;;;4978610;28;20184;-80
2021/04/07 00:23:05;;;;;;;3.28;2.25;;;;;;;;;;4964736;28;20176;-79
2021/04/07 00:25:31;;;;;;;3.20;2.35;;;;;;;;;;4979280;28;20185;-79
2021/04/07 00:28:01;;;;;;;4.55;2.83;;;;;;;;;;4965767;28;20188;-80
2021/04/07 00:30:28;;;;;;;3.95;2.75;;;;;;;;;;4964121;28;20187;-80
2021/04/07 00:32:55;;;;;;;5.47;2.53;;;;;;;;;;4964281;28;20243;-79
2021/04/07 00:35:21;;;;;;;3.50;2.30;;;;;;;;;;4964090;28;20196;-79
2021/04/07 00:37:48;;;;;;;3.00;2.70;;;;;;;;;;4964583;28;20203;-80
2021/04/07 00:40:15;;;;;;;2.97;2.78;;;;;;;;;;4961621;29;20658;-80
2021/04/07 00:42:43;;;;;;;2.83;2.30;;;;;;;;;;4964464;28;20216;-79
2021/04/07 00:45:10;;;;;;;5.18;2.30;;;;;;;;;;4961380;28;20185;-80
2021/04/07 00:47:36;;;;;;;3.25;2.50;;;;;;;;;;4963955;28;20204;-80
2021/04/07 00:50:03;;;;;;;3.40;2.13;;;;;;;;;;4962174;28;20250;-80
2021/04/07 00:52:29;;;;;;;3.28;2.60;;;;;;;;;;4979771;28;20220;-80
2021/04/07 00:54:55;;;;;;;4.32;2.20;;;;;;;;;;4964953;28;20172;-80
2021/04/07 00:57:24;;;;;;;3.05;2.80;;;;;;;;;;4964121;28;20192;-79
2021/04/07 00:59:51;;;;;;;3.70;2.28;;;;;;;;;;4964239;28;20214;-79
2021/04/07 01:02:18;;;;;;;2.30;1.83;;;;;;;;;;4964002;28;20247;-79
2021/04/07 01:04:44;;;;;;;2.75;2.45;;;;;;;;;;4964087;28;20188;-79
2021/04/07 01:07:11;;;;;;;3.35;2.70;;;;;;;;;;4963838;28;20184;-80
2021/04/07 01:09:38;;;;;;;4.25;2.75;;;;;;;;;;4979050;28;20215;-80
2021/04/07 01:12:05;;;;;;;4.18;2.42;;;;;;;;;;4964205;28;20184;-80
2021/04/07 01:14:31;;;;;;;3.08;2.05;;;;;;;;;;4962899;28;20192;-80
2021/04/07 01:16:57;;;;;;;3.20;2.90;;;;;;;;;;4963066;28;20196;-79
2021/04/07 01:19:25;;;;;;;3.95;2.53;;;;;;;;;;4964165;28;20279;-80
2021/04/07 01:21:51;;;;;;;2.60;2.35;;;;;;;;;;4964011;28;20639;-79
2021/04/07 01:24:17;;;;;;;3.15;2.70;;;;;;;;;;4964271;28;20257;-80
2021/04/07 01:26:43;;;;;;;2.78;2.25;;;;;;;;;;4978233;28;20189;-80
2021/04/07 01:29:09;;;;;;;3.90;2.58;;;;;;;;;;4960095;29;20330;-80
2021/04/07 01:31:45;;;;;;;2.45;2.25;;;;;;;;;;4963736;28;20212;-80
2021/04/07 01:34:16;;;;;;;2.50;2.28;;;;;;;;;;4963646;29;20183;-80
2021/04/07 01:36:42;;;;;;;6.38;2.45;;;;;;;;;;4963344;28;20195;-80
2021/04/07 01:39:08;;;;;;;2.30;2.10;;;;;;;;;;4963312;28;20312;-80
2021/04/07 01:41:35;;;;;;;5.47;2.83;;;;;;;;;;4978539;28;20191;-80
2021/04/07 01:44:01;;;;;;;2.65;2.22;;;;;;;;;;4963312;28;20192;-80
2021/04/07 01:46:28;;;;;;;3.92;2.60;;;;;;;;;;4981719;28;20181;-79
2021/04/07 01:48:54;;;;;;;3.25;2.70;;;;;;;;;;4967510;28;20226;-80
2021/04/07 01:51:20;;;;;;;3.75;2.47;;;;;;;;;;4967101;28;20681;-80
2021/04/07 01:53:46;;;;;;;5.47;2.97;;;;;;;;;;4967160;28;20188;-80
2021/04/07 01:56:12;;;;;;;2.85;2.65;;;;;;;;;;4967210;28;20212;-80
2021/04/07 01:58:38;;;;;;;2.55;2.35;;;;;;;;;;4966830;28;20211;-80
2021/04/07 02:01:04;;;;;;;2.70;2.50;;;;;;;;;;4968829;28;20239;-80
2021/04/07 02:03:30;;;;;;;3.13;2.22;;;;;;;;;;4969873;28;20208;-81
2021/04/07 02:05:56;;;;;;;2.83;2.63;;;;;;;;;;4982238;28;20192;-81
2021/04/07 02:08:22;;;;;;;3.80;2.40;;;;;;;;;;4967204;28;20639;-81
2021/04/07 02:10:48;;;;;;;2.90;2.50;;;;;;;;;;4967018;28;20192;-81
2021/04/07 02:13:14;;;;;;;2.53;2.25;;;;;;;;;;4966462;28;20185;-81
2021/04/07 02:15:39;;;;;;;4.20;3.28;;;;;;;;;;4965936;28;20193;-82
2021/04/07 02:18:05;;;;;;;2.95;2.65;;;;;;;;;;4966696;28;20232;-81
2021/04/07 02:20:32;;;;;;;3.22;2.50;;;;;;;;;;4966414;28;20180;-81
2021/04/07 02:22:57;;;;;;;3.40;2.40;;;;;;;;;;4965731;28;20208;-81
2021/04/07 02:25:23;;;;;;;3.10;2.53;;;;;;;;;;4978659;28;20498;-81
2021/04/07 02:27:49;;;;;;;3.20;2.90;;;;;;;;;;4965611;28;20177;-81
2021/04/07 02:30:16;;;;;;;4.50;2.90;;;;;;;;;;4965885;28;20188;-81
2021/04/07 02:32:42;;;;;;;3.88;2.67;;;;;;;;;;4980869;28;20192;-82
2021/04/07 02:35:09;;;;;;;3.25;2.95;;;;;;;;;;4965994;28;20196;-80
2021/04/07 02:37:35;;;;;;;4.85;2.50;;;;;;;;;;4965704;28;20698;-81
2021/04/07 02:40:01;;;;;;;4.95;2.80;;;;;;;;;;4967082;28;20231;-81
2021/04/07 02:42:27;;;;;;;5.32;2.55;;;;;;;;;;4980889;28;20273;-82
2021/04/07 02:44:53;;;;;;;3.05;2.75;;;;;;;;;;4965947;28;20192;-81
2021/04/07 02:47:19;;;;;;;3.17;2.88;;;;;;;;;;4960011;28;20217;-82
2021/04/07 02:49:45;;;;;;;3.20;2.90;;;;;;;;;;4965890;28;20200;-82
2021/04/07 02:52:12;;;;;;;3.47;3.03;;;;;;;;;;4965103;28;20212;-82
2021/04/07 02:54:38;;;;;;;4.78;3.10;;;;;;;;;;4964978;28;20203;-82
2021/04/07 02:57:05;;;;;;;4.07;3.15;;;;;;;;;;4961737;28;20667;-82
2021/04/07 02:59:31;;;;;;;4.07;3.67;;;;;;;;;;4964863;28;20231;-82
2021/04/07 03:01:57;;;;;;;5.15;3.40;;;;;;;;;;4965224;28;20204;-82
2021/04/07 03:04:23;;;;;;;3.92;3.05;;;;;;;;;;4966151;28;20212;-81
2021/04/07 03:06:49;;;;;;;3.30;2.92;;;;;;;;;;4964626;28;20219;-82
2021/04/07 03:09:15;;;;;;;4.03;3.55;;;;;;;;;;4965097;28;20215;-83
2021/04/07 03:11:41;;;;;;;3.58;3.28;;;;;;;;;;4965694;28;20192;-83
2021/04/07 03:14:07;;;;;;;4.03;3.63;;;;;;;;;;4961435;28;20189;-83
2021/04/07 03:16:33;;;;;;;3.20;3.00;;;;;;;;;;4965325;28;20185;-82
2021/04/07 03:18:59;;;;;;;6.55;3.30;;;;;;;;;;4965185;28;20326;-83
2021/04/07 03:21:26;;;;;;;4.38;3.45;;;;;;;;;;4966374;28;20222;-84
2021/04/07 03:23:51;;;;;;;4.47;3.38;;;;;;;;;;4967840;28;20177;-84
2021/04/07 03:26:17;;;;;;;3.60;3.22;;;;;;;;;;4966298;28;20295;-84
2021/04/07 03:28:43;;;;;;;3.42;3.13;;;;;;;;;;4965664;28;20199;-84
2021/04/07 03:31:09;;;;;;;4.18;3.70;;;;;;;;;;4965544;28;20232;-83
2021/04/07 03:33:35;;;;;;;6.05;3.55;;;;;;;;;;4966272;28;20191;-84
2021/04/07 03:36:03;;;;;;;7.57;3.95;;;;;;;;;;4980645;28;20550;-83
2021/04/07 03:38:30;;;;;;;7.53;3.40;;;;;;;;;;4961635;28;20213;-83
2021/04/07 03:40:56;;;;;;;7.10;4.32;;;;;;;;;;4983308;28;20196;-83
2021/04/07 03:43:23;;;;;;;4.90;4.38;;;;;;;;;;4967780;28;20191;-83
2021/04/07 03:45:50;;;;;;;4.85;3.92;;;;;;;;;;4964928;28;20187;-83
2021/04/07 03:48:17;;;;;;;6.93;4.00;;;;;;;;;;4963291;28;20217;-82
2021/04/07 03:50:44;;;;;;;5.75;4.28;;;;;;;;;;4964726;28;20520;-84
2021/04/07 03:53:10;;;;;;;9.15;4.60;;;;;;;;;;4964740;28;20299;-84
2021/04/07 03:55:37;;;;;;;6.90;4.25;;;;;;;;;;4964473;28;20192;-83
2021/04/07 03:58:03;;;;;;;5.72;4.63;;;;;;;;;;4964204;28;20196;-83
2021/04/07 04:00:29;;;;;;;5.80;4.65;;;;;;;;;;4963280;28;20634;-83
2021/04/07 04:02:55;;;;;;;10.38;4.25;;;;;;;;;;4965356;28;20191;-84
2021/04/07 04:05:21;;;;;;;4.70;4.30;;;;;;;;;;4956468;28;20213;-83
2021/04/07 04:07:47;;;;;;;5.65;4.57;;;;;;;;;;4979458;28;20184;-84
2021/04/07 04:10:14;;;;;;;8.38;4.43;;;;;;;;;;4964213;28;20215;-83
2021/04/07 04:12:40;;;;;;;8.02;4.80;;;;;;;;;;4962873;28;20200;-84
2021/04/07 04:15:09;;;;;;;4.72;4.28;;;;;;;;;;4963743;28;20184;-82
2021/04/07 04:17:35;;;;;;;8.07;6.30;;;;;;;;;;4963925;28;20227;-83
2021/04/07 04:20:01;;;;;;;6.10;5.50;;;;;;;;;;4960743;28;20213;-83
2021/04/07 04:22:27;;;;;;;8.60;6.40;;;;;;;;;;4979012;28;20204;-82
2021/04/07 04:24:53;;;;;;;10.30;7.97;;;;;;;;;;4979587;28;20173;-83
2021/04/07 04:27:19;;;;;;;9.88;7.97;;;;;;;;;;4961941;28;20203;-83
2021/04/07 04:29:45;;;;;;;9.30;8.27;;;;;;;;;;4964354;28;20276;-84
2021/04/07 04:32:11;;;;;;;9.23;7.60;;;;;;;;;;4963219;28;20196;-82
2021/04/07 04:34:37;;;;;;;8.68;7.65;;;;;;;;;;4979120;28;20188;-82
2021/04/07 04:37:03;;;;;;;8.38;7.60;;;;;;;;;;4965082;28;20184;-84
2021/04/07 04:39:29;;;;;;;10.18;8.10;;;;;;;;;;4960066;28;20215;-83
2021/04/07 04:41:55;;;;;;;10.65;8.43;;;;;;;;;;4962940;28;20193;-83
2021/04/07 04:44:21;;;;;;;9.95;8.90;;;;;;;;;;4959643;28;20177;-82
2021/04/07 04:46:47;;;;;;;11.63;8.80;;;;;;;;;;4978726;28;20224;-83
2021/04/07 04:49:13;;;;;;;10.68;7.85;;;;;;;;;;4965154;28;20648;-83
2021/04/07 04:51:39;;;;;;;10.48;8.38;;;;;;;;;;4964302;28;20728;-83
2021/04/07 04:54:05;;;;;;;13.50;9.15;;;;;;;;;;4963684;28;20216;-84
2021/04/07 04:56:31;;;;;;;13.77;9.57;;;;;;;;;;4963741;28;20223;-83
2021/04/07 04:58:57;;;;;;;13.15;9.45;;;;;;;;;;4964332;28;20556;-83
2021/04/07 05:01:23;;;;;;;17.10;9.63;;;;;;;;;;4979256;28;20635;-82
2021/04/07 05:03:49;;;;;;;17.08;10.10;;;;;;;;;;4964415;28;20180;-83
2021/04/07 05:06:15;;;;;;;14.00;11.52;;;;;;;;;;4963499;28;20192;-82
2021/04/07 05:08:41;;;;;;;13.10;10.15;;;;;;;;;;4962654;28;20192;-83
2021/04/07 05:11:07;;;;;;;14.98;9.88;;;;;;;;;;4960353;28;20201;-82
2021/04/07 05:13:33;;;;;;;14.20;9.75;;;;;;;;;;4979045;28;20252;-82
2021/04/07 05:15:59;;;;;;;15.15;10.02;;;;;;;;;;4963083;28;20187;-82
2021/04/07 05:18:25;;;;;;;10.80;8.90;;;;;;;;;;4965133;28;20271;-82
2021/04/07 05:20:51;;;;;;;11.18;8.77;;;;;;;;;;4967771;28;20181;-81
2021/04/07 05:23:17;;;;;;;11.25;9.70;;;;;;;;;;4968067;28;20172;-82
2021/04/07 05:25:43;;;;;;;11.40;9.00;;;;;;;;;;4982291;28;20195;-82
2021/04/07 05:28:09;;;;;;;8.93;8.02;;;;;;;;;;4964440;28;20645;-82
2021/04/07 05:33:23;;;;;;;12.13;7.93;;;;;;;;;;4967558;28;20220;-81
2021/04/07 05:35:50;;;;;;;10.02;8.20;;;;;;;;;;4967355;28;20284;-81
2021/04/07 05:38:21;;;;;;;11.15;7.82;;;;;;;;;;4967464;28;20180;-82
2021/04/07 05:40:47;;;;;;;10.10;8.32;;;;;;;;;;4977366;28;20180;-82
2021/04/07 05:43:13;;;;;;;10.52;8.68;;;;;;;;;;4968649;28;20179;-81
2021/04/07 05:45:39;;;;;;;13.45;7.75;;;;;;;;;;4966975;28;20432;-81
2021/04/07 05:48:06;;;;;;;10.75;7.95;;;;;;;;;;4967324;28;20216;-82
2021/04/07 05:50:32;;;;;;;13.05;7.63;;;;;;;;;;4967269;28;20184;-81
2021/04/07 05:52:58;;;;;;;12.45;7.22;;;;;;;;;;4966649;28;20212;-83
2021/04/07 05:55:24;;;;;;;11.80;7.35;;;;;;;;;;4981981;28;20188;-81
2021/04/07 05:57:57;;;;;;;10.82;8.30;;;;;;;;;;4963571;28;20618;-83
2021/04/07 06:00:24;;;;;;;8.60;7.70;;;;;;;;;;4965329;28;20209;-83
2021/04/07 06:02:52;;;;;;;7.50;6.75;;;;;;;;;;4966442;28;20180;-83
2021/04/07 06:05:18;;;;;;;10.40;8.80;;;;;;;;;;4966122;28;20188;-83
2021/04/07 06:07:44;;;;;;;8.80;7.15;;;;;;;;;;4976722;28;20192;-82
2021/04/07 06:10:10;;;;;;;9.07;7.35;;;;;;;;;;4967467;28;20181;-81
2021/04/07 06:12:36;;;;;;;13.48;8.13;;;;;;;;;;4965631;28;20192;-83
2021/04/07 06:15:03;;;;;;;8.98;7.00;;;;;;;;;;4962575;28;20227;-82
2021/04/07 06:17:29;;;;;;;9.07;6.90;;;;;;;;;;4961762;28;20224;-84
2021/04/07 06:19:55;;;;;;;14.05;11.55;;;;;;;;;;4981209;28;20212;-83
2021/04/07 06:22:21;;;;;;;7.82;7.05;;;;;;;;;;4961304;28;20220;-82
2021/04/07 06:24:47;;;;;;;10.80;6.93;;;;;;;;;;4963314;28;20181;-83
2021/04/07 06:27:13;;;;;;;14.10;8.18;;;;;;;;;;4964954;28;20256;-82
2021/04/07 06:29:39;;;;;;;8.98;6.82;;;;;;;;;;4966090;28;20325;-83
2021/04/07 06:32:05;;;;;;;7.20;6.47;;;;;;;;;;4966428;28;20188;-83
2021/04/07 06:34:31;;;;;;;12.75;7.88;;;;;;;;;;4966512;28;20195;-82
2021/04/07 06:36:57;;;;;;;7.00;6.30;;;;;;;;;;4979351;28;20188;-81
2021/04/07 06:39:23;;;;;;;14.45;7.60;;;;;;;;;;4965405;28;20218;-82
2021/04/07 06:41:49;;;;;;;9.50;7.43;;;;;;;;;;4964165;28;20177;-82
2021/04/07 06:44:16;;;;;;;11.65;8.50;;;;;;;;;;4966102;28;20540;-81
2021/04/07 06:46:43;;;;;;;10.15;7.93;;;;;;;;;;4979962;28;20185;-81
2021/04/07 06:49:09;;;;;;;10.55;8.98;;;;;;;;;;4980935;28;20196;-82
2021/04/07 06:51:36;;;;;;;10.50;7.85;;;;;;;;;;4965053;28;20192;-83
2021/04/07 06:54:02;;;;;;;10.20;8.85;;;;;;;;;;4965878;28;20433;-81
2021/04/07 06:56:28;;;;;;;11.35;9.02;;;;;;;;;;4962850;28;20204;-83
2021/04/07 06:58:54;;;;;;;13.38;8.50;;;;;;;;;;4964925;28;20212;-83
2021/04/07 07:01:20;;;;;;;10.98;9.10;;;;;;;;;;4966274;28;20192;-82
2021/04/07 07:03:46;;;;;;;11.52;8.43;;;;;;;;;;4965003;28;20172;-82
2021/04/07 07:06:12;;;;;;;13.73;8.35;;;;;;;;;;4962676;28;20742;-83
2021/04/07 07:08:38;;;;;;;11.73;7.85;;;;;;;;;;4965363;28;20207;-83
2021/04/07 07:11:14;;;;;;;9.20;7.00;;;;;;;;;;4979473;28;20294;-83
2021/04/07 07:13:41;;;;;;;8.07;6.95;;;;;;;;;;4963930;28;20192;-83
2021/04/07 07:16:07;;;;;;;10.27;6.95;;;;;;;;;;4957267;28;20193;-83
2021/04/07 07:18:33;;;;;;;10.50;6.90;;;;;;;;;;4958625;28;20251;-80
2021/04/07 07:20:59;;;;;;;9.10;7.60;;;;;;;;;;4961874;28;20216;-83
2021/04/07 07:23:26;;;;;;;8.38;6.53;;;;;;;;;;4958252;28;20192;-81
2021/04/07 07:25:55;;;;;;;16.05;7.25;;;;;;;;;;4964662;28;20215;-82
2021/04/07 07:28:21;;;;;;;15.18;7.75;;;;;;;;;;4976508;28;20177;-82
2021/04/07 07:30:47;;;;;;;13.38;7.68;;;;;;;;;;4959389;28;20176;-82
2021/04/07 07:33:17;;;;;;;12.40;8.75;;;;;;;;;;4964328;28;20200;-82
2021/04/07 07:35:45;;;;;;;8.98;6.15;;;;;;;;;;4962556;28;20191;-82
2021/04/07 07:38:11;;;;;;;9.50;6.35;;;;;;;;;;4961929;28;20654;-83
2021/04/07 07:40:37;;;;;;;11.73;7.22;;;;;;;;;;4978386;28;20201;-84
2021/04/07 07:43:03;;;;;;;8.10;5.63;;;;;;;;;;4963918;28;20227;-83
2021/04/07 07:45:36;;;;;;;10.07;6.68;;;;;;;;;;4958821;28;20271;-83
2021/04/07 07:48:07;;;;;;;7.10;5.57;;;;;;;;;;4962143;28;20177;-81
2021/04/07 07:50:37;;;;;;;6.03;4.90;;;;;;;;;;4964489;28;20704;-82
2021/04/07 07:53:11;;;;;;;17.73;7.65;;;;;;;;;;4961571;28;20224;-82
2021/04/07 07:55:40;;;;;;;8.10;5.45;;;;;;;;;;4964094;28;20312;-81
2021/04/07 07:58:06;;;;;;;7.45;4.60;;;;;;;;;;4964102;28;20277;-80
2021/04/07 08:00:32;;;;;;;6.25;5.63;;;;;;;;;;4964318;28;20185;-82
2021/04/07 08:03:08;;;;;;;6.22;4.97;;;;;;;;;;4963820;28;20189;-83
2021/04/07 08:05:38;;;;;;;8.85;4.80;;;;;;;;;;4977161;28;20188;-81
2021/04/07 08:08:05;;;;;;;7.43;4.68;;;;;;;;;;4963323;28;20239;-81
2021/04/07 08:10:32;;;;;;;5.20;4.70;;;;;;;;;;4962660;28;20176;-83
2021/04/07 08:13:00;;;;;;;6.38;4.40;;;;;;;;;;4979488;28;20542;-82
2021/04/07 08:15:27;;;;;;;6.18;4.00;;;;;;;;;;4957895;28;20185;-82
2021/04/07 08:17:53;;;;;;;4.75;4.00;;;;;;;;;;4962767;28;20212;-83
2021/04/07 08:20:19;;;;;;;6.13;3.80;;;;;;;;;;4963506;28;20219;-84
2021/04/07 08:22:45;;;;;;;4.40;2.80;;;;;;;;;;4960515;28;20192;-83
2021/04/07 08:25:14;;;;;;;5.32;2.20;;;;;;;;;;4979538;28;20319;-82
2021/04/07 08:27:40;;;;;;;4.70;2.50;;;;;;;;;;4978272;28;20184;-84
2021/04/07 08:30:07;;;;;;;3.67;3.20;;;;;;;;;;4960443;28;20196;-83
2021/04/07 08:32:33;;;;;;;5.25;2.80;;;;;;;;;;4964263;28;20260;-85
2021/04/07 08:34:59;;;;;;;7.65;2.85;;;;;;;;;;4964127;28;20220;-85
2021/04/07 08:37:29;;;;;;;2.85;2.50;;;;;;;;;;4961747;28;20201;-81
2021/04/07 08:39:55;;;;;;;4.85;3.42;;;;;;;;;;4961685;28;20280;-83
2021/04/07 08:42:22;;;;;;;4.75;3.88;;;;;;;;;;4964076;28;20188;-82
2021/04/07 08:44:49;;;;;;;4.03;3.22;;;;;;;;;;4967374;28;20181;-83
2021/04/07 08:47:44;;;;;;;4.35;2.70;;;;;;;;;;4966383;28;20183;-82
2021/04/07 08:50:11;;;;;;;4.40;2.45;;;;;;;;;;4961144;28;20192;-78
2021/04/07 08:52:48;;;;;;;2.40;2.20;;;;;;;;;;4982053;28;20195;-83
2021/04/07 08:55:23;;;;;;;2.00;1.80;;;;;;;;;;4964887;28;20186;-84
2021/04/07 08:58:04;;;;;;;3.33;2.17;;;;;;;;;;4982480;28;20188;-83
2021/04/07 09:00:31;;;;;;;4.50;2.10;;;;;;;;;;4965961;28;20218;-80
2021/04/07 09:02:58;;;;;;;3.90;1.60;;;;;;;;;;4967886;28;20189;-83
2021/04/07 09:05:31;;;;;;;2.40;1.40;;;;;;;;;;4960389;28;20280;-83
2021/04/07 09:07:58;;;;;;;1.65;1.55;;;;;;;;;;4965328;28;20192;-83
2021/04/07 09:10:24;;;;;;;2.60;1.98;;;;;;;;;;4967802;28;20185;-81
2021/04/07 09:12:52;;;;;;;2.20;1.90;;;;;;;;;;4966718;28;20184;-82
2021/04/07 09:15:19;;;;;;;2.35;1.90;;;;;;;;;;4962891;28;20343;-82
2021/04/07 09:17:50;;;;;;;4.45;2.10;;;;;;;;;;4963076;28;20220;-82
2021/04/07 09:20:52;;;;;;;3.28;2.58;;;;;;;;;;4981729;28;20243;-83
2021/04/07 09:23:30;;;;;;;2.20;2.00;;;;;;;;;;4962130;28;20285;-81
2021/04/07 09:26:00;;;;;;;3.72;2.60;;;;;;;;;;4983306;28;20245;-81
2021/04/07 09:28:33;;;;;;;3.65;2.15;;;;;;;;;;4983291;28;20198;-82
2021/04/07 09:31:12;;;;;;;5.80;3.35;;;;;;;;;;4984536;28;20188;-80
2021/04/07 09:33:39;;;;;;;2.72;2.35;;;;;;;;;;4983507;28;20184;-81
2021/04/07 09:36:06;;;;;;;2.53;1.52;;;;;;;;;;4966686;28;20251;-81
2021/04/07 09:38:34;;;;;;;2.50;2.30;;;;;;;;;;4967135;28;20223;-84
2021/04/07 09:41:13;;;;;;;3.67;2.40;;;;;;;;;;4970981;28;20203;-83
2021/04/07 09:43:40;;;;;;;4.07;3.20;;;;;;;;;;4981356;28;20208;-82
2021/04/07 09:46:09;;;;;;;3.28;2.85;;;;;;;;;;4965323;28;20265;-82
2021/04/07 09:48:42;;;;;;;2.03;1.83;;;;;;;;;;4983271;28;20176;-82
2021/04/07 09:51:18;;;;;;;4.07;2.92;;;;;;;;;;4965551;28;20204;-84
2021/04/07 09:53:45;;;;;;;2.78;2.00;;;;;;;;;;4983170;28;20179;-81
2021/04/07 09:56:11;;;;;;;5.93;3.45;;;;;;;;;;4965190;28;20195;-83
2021/04/07 09:58:43;;;;;;;3.55;2.67;;;;;;;;;;4965121;28;20205;-84
2021/04/07 10:01:10;;;;;;;2.95;2.75;;;;;;;;;;4962371;28;20195;-82
2021/04/07 10:03:36;;;;;;;4.00;2.90;;;;;;;;;;4979608;28;20173;-83
2021/04/07 10:06:02;;;;;;;3.15;2.58;;;;;;;;;;4965517;28;20176;-80
2021/04/07 10:08:28;;;;;;;4.38;2.90;;;;;;;;;;4966992;28;20692;-81
2021/04/07 10:11:05;;;;;;;2.83;2.10;;;;;;;;;;4966248;28;20264;-82
2021/04/07 10:13:31;;;;;;;6.90;3.40;;;;;;;;;;4965915;28;20180;-84
2021/04/07 10:15:57;;;;;;;3.90;3.10;;;;;;;;;;4966721;28;20177;-82
2021/04/07 10:18:23;;;;;;;3.97;2.58;;;;;;;;;;4966248;28;20220;-83
2021/04/07 10:20:49;;;;;;;2.55;2.35;;;;;;;;;;4965847;28;20187;-81
2021/04/07 10:23:21;;;;;;;3.40;2.90;;;;;;;;;;4962271;28;20189;-84
2021/04/07 10:25:48;;;;;;;2.63;2.42;;;;;;;;;;4963812;28;20189;-78
2021/04/07 10:28:20;;;;;;;2.45;2.25;;;;;;;;;;4977506;28;20176;-82
2021/04/07 10:30:46;;;;;;;3.38;2.72;;;;;;;;;;4962017;29;20177;-80
2021/04/07 10:33:12;;;;;;;4.38;3.30;;;;;;;;;;4965117;28;20227;-81
2021/04/07 10:35:39;;;;;;;2.90;2.30;;;;;;;;;;4966789;28;20219;-83
2021/04/07 10:38:11;;;;;;;3.63;2.90;;;;;;;;;;4963973;28;20447;-81
2021/04/07 10:40:39;;;;;;;3.35;2.92;;;;;;;;;;4965939;28;20207;-81
2021/04/07 10:43:12;;;;;;;3.58;2.90;;;;;;;;;;4966425;28;20176;-82
2021/04/07 10:45:38;;;;;;;2.95;2.30;;;;;;;;;;4963596;28;20330;-81
2021/04/07 10:48:05;;;;;;;3.15;2.38;;;;;;;;;;4960699;28;20189;-86
2021/04/07 10:50:32;;;;;;;5.68;3.50;;;;;;;;;;4964892;28;20180;-79
2021/04/07 10:52:58;;;;;;;2.75;2.55;;;;;;;;;;4962334;28;20196;-84
2021/04/07 10:55:25;;;;;;;2.80;2.60;;;;;;;;;;4962843;28;20264;-82
2021/04/07 10:57:55;;;;;;;3.50;2.65;;;;;;;;;;4963709;28;20177;-85
2021/04/07 11:00:26;;;;;;;2.80;2.28;;;;;;;;;;4965300;28;20239;-81
2021/04/07 11:02:52;;;;;;;2.95;2.13;;;;;;;;;;4960275;28;20188;-81
2021/04/07 11:05:23;;;;;;;2.50;2.30;;;;;;;;;;4962144;28;20702;-82
2021/04/07 11:07:59;;;;;;;2.40;2.20;;;;;;;;;;4964837;28;20204;-84
2021/04/07 11:10:25;;;;;;;2.50;2.30;;;;;;;;;;4977365;28;20203;-83
2021/04/07 11:12:51;;;;;;;3.47;2.35;;;;;;;;;;4963695;28;20200;-79
2021/04/07 11:15:18;;;;;;;2.72;2.53;;;;;;;;;;4959622;28;20211;-81
2021/04/07 11:17:53;;;;;;;2.20;2.00;;;;;;;;;;4964610;28;20220;-81
2021/04/07 11:20:23;;;;;;;3.67;2.75;;;;;;;;;;4963864;28;20208;-79
2021/04/07 11:22:49;;;;;;;4.05;1.90;;;;;;;;;;4961006;28;20199;-80
2021/04/07 11:25:16;;;;;;;3.13;2.10;;;;;;;;;;4976691;28;20698;-81
2021/04/07 11:27:42;;;;;;;2.17;1.95;;;;;;;;;;4960498;28;20192;-81
2021/04/07 11:30:09;;;;;;;9.13;2.17;;;;;;;;;;4975678;28;20193;-85
2021/04/07 11:32:38;;;;;;;2.40;2.20;;;;;;;;;;4960629;28;20181;-83
2021/04/07 11:35:43;;;;;;;4.97;2.80;;;;;;;;;;4964483;28;20184;-82
2021/04/07 11:38:00;;;;;;;2.15;2.00;;;;;;;;;;4956375;28;20228;-83
2021/04/07 11:40:56;;;;;;;2.63;2.42;;;;;;;;;;4962994;28;20217;-84
2021/04/07 11:43:28;;;;;;;2.63;2.05;;;;;;;;;;4962761;29;20204;-82
2021/04/07 11:45:54;;;;;;;3.13;2.35;;;;;;;;;;4963926;28;20181;-81
2021/04/07 11:48:20;;;;;;;1.93;1.83;;;;;;;;;;4961012;28;20196;-82
2021/04/07 11:50:46;;;;;;;4.47;4.07;;;;;;;;;;4962960;28;20428;-83
2021/04/07 11:53:12;;;;;;;2.57;2.20;;;;;;;;;;4959592;28;20188;-81
2021/04/07 11:55:39;;;;;;;3.30;3.00;;;;;;;;;;4963206;28;20432;-79
2021/04/07 11:58:05;;;;;;;3.97;2.30;;;;;;;;;;4963213;28;20181;-83
2021/04/07 12:00:31;;;;;;;2.87;2.37;;;;;;;;;;4960509;28;20240;-84
2021/04/07 12:02:57;;;;;;;2.67;2.33;;;;;;;;;;4957580;29;20444;-84
2021/04/07 12:05:26;;;;;;;2.47;1.95;;;;;;;;;;4964033;28;20557;-82
2021/04/07 12:07:52;;;;;;;3.70;2.30;;;;;;;;;;4961956;28;20678;-85
2021/04/07 12:10:18;;;;;;;4.22;2.10;;;;;;;;;;4961300;28;20181;-82
2021/04/07 12:12:45;;;;;;;3.80;2.50;;;;;;;;;;4958834;28;20195;-80
2021/04/07 12:15:12;;;;;;;2.10;1.40;;;;;;;;;;4963568;28;20207;-81
2021/04/07 12:17:38;;;;;;;2.05;1.88;;;;;;;;;;4960839;28;20711;-82
2021/04/07 12:20:04;;;;;;;2.92;1.70;;;;;;;;;;4962113;28;20224;-80
2021/04/07 12:22:30;;;;;;;2.50;2.30;;;;;;;;;;4963767;28;20269;-82
2021/04/07 12:24:56;;;;;;;3.60;2.00;;;;;;;;;;4976141;28;20194;-81
2021/04/07 12:27:22;;;;;;;4.55;2.80;;;;;;;;;;4963118;28;20459;-81
2021/04/07 12:29:48;;;;;;;1.83;1.42;;;;;;;;;;4963957;28;20180;-80
2021/04/07 12:32:14;;;;;;;2.35;1.70;;;;;;;;;;4964376;28;20181;-85
2021/04/07 12:34:41;;;;;;;3.13;2.00;;;;;;;;;;4963458;28;20579;-84
2021/04/07 12:37:07;;;;;;;3.07;1.90;;;;;;;;;;4960025;28;20184;-80
2021/04/07 12:39:35;;;;;;;1.80;1.70;;;;;;;;;;4963297;28;20519;-81
2021/04/07 12:42:02;;;;;;;2.70;1.60;;;;;;;;;;4964230;28;20442;-79
2021/04/07 12:44:28;;;;;;;3.15;1.63;;;;;;;;;;4963436;28;20177;-83
2021/04/07 12:46:54;;;;;;;2.17;1.98;;;;;;;;;;4963210;28;20199;-83
2021/04/07 12:49:20;;;;;;;2.30;2.10;;;;;;;;;;4959214;28;20335;-80
2021/04/07 12:51:46;;;;;;;2.83;1.90;;;;;;;;;;4977888;28;20415;-79
2021/04/07 12:54:13;;;;;;;2.40;1.97;;;;;;;;;;4960055;28;20417;-78
2021/04/07 12:56:43;;;;;;;2.50;2.00;;;;;;;;;;4963506;28;20474;-82
2021/04/07 12:59:10;;;;;;;2.90;1.80;;;;;;;;;;4963035;28;20838;-81
2021/04/07 13:01:36;;;;;;;1.90;1.80;;;;;;;;;;4963781;28;20477;-80
2021/04/07 13:04:02;;;;;;;2.80;1.90;;;;;;;;;;4964276;28;20209;-81
2021/04/07 13:06:28;;;;;;;2.30;2.00;;;;;;;;;;4956516;28;20439;-79
2021/04/07 13:08:54;;;;;;;3.50;2.30;;;;;;;;;;4963708;28;20416;-81
2021/04/07 13:11:20;;;;;;;2.50;2.30;;;;;;;;;;4964088;28;20507;-85
2021/04/07 13:13:46;;;;;;;2.40;2.00;;;;;;;;;;4978049;28;20448;-82
2021/04/07 13:16:12;;;;;;;3.60;2.50;;;;;;;;;;4963292;28;20442;-79
2021/04/07 13:18:38;;;;;;;3.33;1.90;;;;;;;;;;4976925;28;20908;-83
2021/04/07 13:21:06;;;;;;;2.90;2.30;;;;;;;;;;4960974;28;20492;-81
2021/04/07 13:23:35;;;;;;;2.70;2.50;;;;;;;;;;4968754;28;21001;-82
2021/04/07 13:26:01;;;;;;;2.90;2.60;;;;;;;;;;4960020;28;20443;-80
2021/04/07 13:28:27;;;;;;;2.80;2.30;;;;;;;;;;4961552;28;20501;-78
2021/04/07 13:30:55;;;;;;;2.30;2.10;;;;;;;;;;4963179;28;20408;-81
2021/04/07 13:33:28;;;;;;;2.10;1.90;;;;;;;;;;4961489;28;20424;-83
2021/04/07 13:35:57;;;;;;;2.50;1.90;;;;;;;;;;4959330;28;20473;-85
2021/04/07 13:43:44;;;;;;;4.23;2.13;;;;;;;;;;4966179;28;20432;-85
2021/04/07 13:46:10;;;;;;;2.30;2.10;;;;;;;;;;4967284;28;20434;-83
2021/04/07 13:48:36;;;;;;;2.17;1.97;;;;;;;;;;4967331;28;20458;-83
2021/04/07 13:51:02;;;;;;;3.37;3.07;;;;;;;;;;4972039;28;20523;-81
2021/04/07 13:53:28;;;;;;;6.87;5.70;;;;;;;;;;4969159;28;20507;-82
2021/04/07 13:55:57;;;;;;;3.40;3.10;;;;;;;;;;4988456;28;20444;-82
2021/04/07 13:58:23;;;;;;;4.13;1.80;;;;;;;;;;4970951;28;20432;-81
2021/04/07 14:00:51;;;;;;;2.47;2.13;;;;;;;;;;4965783;28;20193;-83
2021/04/07 14:03:17;;;;;;;3.00;2.80;;;;;;;;;;4978459;28;20518;-84
2021/04/07 14:05:43;;;;;;;2.40;2.20;;;;;;;;;;4962578;28;20232;-82
2021/04/07 14:08:11;;;;;;;1.92;1.83;;;;;;;;;;4961907;28;20954;-82
2021/04/07 14:10:42;;;;;;;1.65;1.50;;;;;;;;;;4966786;28;20329;-83
2021/04/07 14:13:09;;;;;;;2.40;1.60;;;;;;;;;;4965718;28;20630;-81
2021/04/07 14:15:35;;;;;;;3.92;2.13;;;;;;;;;;4961550;28;20248;-80
2021/04/07 14:18:01;;;;;;;1.95;1.85;;;;;;;;;;4974786;28;20227;-83
2021/04/07 14:20:27;;;;;;;3.22;2.20;;;;;;;;;;4963388;28;20251;-84
2021/04/07 14:22:53;;;;;;;3.22;2.03;;;;;;;;;;4965660;28;20196;-85
2021/04/07 14:25:21;;;;;;;2.13;1.50;;;;;;;;;;4982336;28;20177;-84
2021/04/07 14:27:47;;;;;;;1.83;1.50;;;;;;;;;;4961884;28;20420;-85
2021/04/07 14:30:15;;;;;;;2.25;2.05;;;;;;;;;;4966176;28;20199;-83
2021/04/07 14:32:41;;;;;;;2.50;1.60;;;;;;;;;;4964993;28;20191;-83
2021/04/07 14:35:07;;;;;;;3.40;2.22;;;;;;;;;;4963625;28;20626;-84
2021/04/07 14:37:33;;;;;;;3.30;2.03;;;;;;;;;;4980689;28;20177;-85
2021/04/07 14:39:59;;;;;;;1.83;1.60;;;;;;;;;;4966399;28;20283;-85
2021/04/07 14:42:25;;;;;;;3.10;1.90;;;;;;;;;;4964350;28;20262;-84
2021/04/07 14:44:52;;;;;;;2.33;1.80;;;;;;;;;;4965654;29;20255;-86
2021/04/07 14:47:18;;;;;;;2.85;2.10;;;;;;;;;;4958713;28;20213;-85
2021/04/07 14:49:44;;;;;;;2.60;1.75;;;;;;;;;;4979287;28;20192;-85